Time;durP1;ratioP1;P1;durP2;ratioP2;P2;SDS_P1;SDS_P2;PMS_P1;PMS_P2;Temp;Humidity;BMP_temperature;BMP_pressure;BME280_temperature;BME280_humidity;BME280_pressure;Samples;Min_cycle;Max_cycle;Signal;HPM_P1;HPM_P2
2022/10/28 00:00:45;;;;;;;4.25;3.15;;;13.40;99.90;;;;;;5025194;28;20491;-84
2022/10/28 00:03:11;;;;;;;4.43;3.00;;;13.30;99.90;;;;;;5025033;28;20576;-84
2022/10/28 00:05:36;;;;;;;4.80;3.22;;;13.30;99.90;;;;;;5024530;28;20025;-84
2022/10/28 00:08:02;;;;;;;4.95;3.45;;;13.30;99.90;;;;;;5024924;28;20135;-84
2022/10/28 00:10:27;;;;;;;6.07;3.80;;;13.30;99.90;;;;;;5025820;28;20436;-85
2022/10/28 00:12:53;;;;;;;3.83;3.40;;;13.30;99.90;;;;;;5025451;28;20457;-85
2022/10/28 00:15:19;;;;;;;5.05;3.42;;;13.30;99.90;;;;;;5023553;28;20028;-85
2022/10/28 00:17:44;;;;;;;4.50;3.30;;;13.30;99.90;;;;;;5025640;28;20694;-85
2022/10/28 00:20:10;;;;;;;7.53;4.63;;;13.30;99.90;;;;;;5023168;28;20048;-85
2022/10/28 00:22:36;;;;;;;4.38;3.88;;;13.30;99.90;;;;;;5023877;28;20429;-85
2022/10/28 00:25:02;;;;;;;4.90;4.10;;;13.30;99.90;;;;;;5013919;28;20033;-85
2022/10/28 00:27:28;;;;;;;4.57;3.53;;;13.30;99.90;;;;;;5023985;28;20025;-85
2022/10/28 00:29:54;;;;;;;5.93;3.45;;;13.30;99.90;;;;;;5009293;28;20017;-85
2022/10/28 00:32:20;;;;;;;4.50;3.88;;;13.30;99.90;;;;;;5023301;28;20017;-85
2022/10/28 00:34:46;;;;;;;4.53;3.70;;;13.30;99.90;;;;;;5018555;28;20022;-84
2022/10/28 00:37:12;;;;;;;4.43;3.53;;;13.20;99.90;;;;;;5024231;28;20017;-84
2022/10/28 00:42:06;;;;;;;3.53;3.22;;;13.20;99.90;;;;;;4988966;28;20069;-50
2022/10/28 00:44:53;;;;;;;3.92;3.30;;;13.20;99.90;;;;;;4982634;28;20027;-51
2022/10/28 00:47:36;;;;;;;8.40;4.07;;;13.10;99.90;;;;;;4978151;28;20109;-54
2022/10/28 00:50:20;;;;;;;4.28;3.28;;;13.20;99.90;;;;;;4982552;28;20100;-57
2022/10/28 00:52:52;;;;;;;4.20;2.85;;;13.10;99.90;;;;;;4968637;28;20054;-56
2022/10/28 00:55:20;;;;;;;6.35;3.67;;;13.10;99.90;;;;;;4972826;28;20026;-56
2022/10/28 00:57:46;;;;;;;5.47;3.65;;;13.10;99.90;;;;;;4978086;28;20026;-55
2022/10/28 01:00:13;;;;;;;5.57;3.42;;;13.10;99.90;;;;;;4980806;28;20034;-53
2022/10/28 01:02:45;;;;;;;5.45;3.10;;;13.00;99.90;;;;;;4980285;28;20026;-53
2022/10/28 01:05:13;;;;;;;6.10;3.63;;;13.00;99.90;;;;;;4980839;28;20038;-55
2022/10/28 01:07:39;;;;;;;4.70;3.72;;;13.00;99.90;;;;;;4983496;28;20018;-52
2022/10/28 01:10:06;;;;;;;6.20;3.83;;;13.00;99.90;;;;;;4979425;28;20389;-55
2022/10/28 01:12:39;;;;;;;4.28;3.33;;;12.90;99.90;;;;;;4980287;28;20030;-53
2022/10/28 01:15:12;;;;;;;4.45;3.63;;;12.90;99.90;;;;;;4978337;28;20096;-55
2022/10/28 01:17:57;;;;;;;4.68;3.28;;;12.90;99.90;;;;;;4982855;28;20038;-53
2022/10/28 01:20:53;;;;;;;6.20;3.78;;;12.90;99.90;;;;;;4982208;28;20481;-56
2022/10/28 01:23:28;;;;;;;4.53;3.55;;;12.80;99.90;;;;;;4976480;28;20493;-54
2022/10/28 01:26:12;;;;;;;6.10;3.85;;;12.80;99.90;;;;;;4976028;28;20053;-52
2022/10/28 01:29:15;;;;;;;5.15;4.22;;;12.80;99.90;;;;;;4978802;28;20034;-53
2022/10/28 01:31:52;;;;;;;3.70;3.20;;;12.80;99.90;;;;;;4974695;28;20397;-51
2022/10/28 01:34:47;;;;;;;4.70;3.67;;;12.80;99.90;;;;;;4971042;28;20033;-53
2022/10/28 01:37:15;;;;;;;4.68;3.50;;;12.70;99.90;;;;;;4974933;28;20512;-51
2022/10/28 01:40:16;;;;;;;4.40;3.75;;;12.70;99.90;;;;;;4977633;28;20027;-52
2022/10/28 01:42:46;;;;;;;4.50;3.88;;;12.70;99.90;;;;;;4978260;28;20039;-54
2022/10/28 01:45:18;;;;;;;3.28;3.05;;;12.60;99.90;;;;;;4979783;28;20386;-53
2022/10/28 01:47:52;;;;;;;4.28;3.20;;;12.60;99.90;;;;;;4975687;28;20023;-54
2022/10/28 01:50:43;;;;;;;5.30;3.15;;;12.50;99.90;;;;;;4976080;28;20046;-54
2022/10/28 01:53:22;;;;;;;5.55;3.72;;;12.50;99.90;;;;;;4977845;28;20034;-52
2022/10/28 01:55:52;;;;;;;4.40;3.35;;;12.50;99.90;;;;;;4975654;28;20027;-52
2022/10/28 01:58:24;;;;;;;6.43;3.83;;;12.50;99.90;;;;;;4989108;23;20073;-53
2022/10/28 02:00:50;;;;;;;4.57;3.38;;;12.50;99.90;;;;;;4995527;28;20033;-49
2022/10/28 02:03:16;;;;;;;4.63;3.35;;;12.40;99.90;;;;;;4998139;28;20080;-51
2022/10/28 02:05:43;;;;;;;6.05;3.70;;;12.40;99.90;;;;;;4993889;28;20022;-53
2022/10/28 02:08:32;;;;;;;4.00;3.28;;;12.40;99.90;;;;;;4999871;28;20038;-48
2022/10/28 02:11:34;;;;;;;4.35;3.95;;;12.40;99.90;;;;;;4994651;28;20042;-49
2022/10/28 02:14:16;;;;;;;6.30;3.50;;;12.40;99.90;;;;;;4997048;28;20046;-48
2022/10/28 02:17:00;;;;;;;4.47;3.53;;;12.50;99.90;;;;;;5001066;28;20461;-52
2022/10/28 02:19:35;;;;;;;3.63;3.33;;;12.40;99.90;;;;;;5010994;28;20041;-48
2022/10/28 02:22:33;;;;;;;5.38;4.03;;;12.40;99.90;;;;;;4999719;28;20034;-51
2022/10/28 02:25:12;;;;;;;7.88;4.20;;;12.40;99.90;;;;;;4965387;28;20452;-49
2022/10/28 02:27:45;;;;;;;4.55;3.90;;;12.40;99.90;;;;;;4992957;28;20029;-50
2022/10/28 02:30:17;;;;;;;5.35;3.95;;;12.40;99.90;;;;;;4997485;28;20019;-50
2022/10/28 02:32:49;;;;;;;6.32;3.53;;;12.40;99.90;;;;;;5001387;28;20032;-53
2022/10/28 02:35:21;;;;;;;4.63;3.75;;;12.40;99.90;;;;;;4996603;28;20050;-49
2022/10/28 02:37:49;;;;;;;4.93;4.18;;;12.40;99.90;;;;;;4999215;28;20029;-51
2022/10/28 02:40:20;;;;;;;3.72;3.40;;;12.40;99.90;;;;;;4990877;28;20500;-50
2022/10/28 02:42:53;;;;;;;4.32;3.83;;;12.40;99.90;;;;;;4992597;28;20477;-53
2022/10/28 02:45:27;;;;;;;7.00;3.92;;;12.40;99.90;;;;;;4994798;28;20023;-48
2022/10/28 02:48:07;;;;;;;4.28;3.58;;;12.30;99.90;;;;;;5007988;28;20188;-48
2022/10/28 02:50:37;;;;;;;4.03;3.33;;;12.30;99.90;;;;;;5000023;28;20030;-49
2022/10/28 02:53:10;;;;;;;5.03;3.90;;;12.20;99.90;;;;;;4998859;28;20026;-53
2022/10/28 02:55:41;;;;;;;6.20;3.67;;;12.20;99.90;;;;;;4996379;28;20580;-50
2022/10/28 02:58:07;;;;;;;5.13;3.42;;;12.20;99.90;;;;;;4996445;28;20030;-48
2022/10/28 03:00:32;;;;;;;6.32;4.38;;;12.20;99.90;;;;;;4997560;28;20026;-50
2022/10/28 03:02:58;;;;;;;8.23;4.25;;;12.20;99.90;;;;;;5003391;28;20018;-51
2022/10/28 03:05:23;;;;;;;10.00;4.13;;;12.20;99.90;;;;;;5000920;28;20030;-51
2022/10/28 03:07:49;;;;;;;6.40;4.43;;;12.20;99.90;;;;;;5001433;28;20523;-49
2022/10/28 03:10:15;;;;;;;6.13;4.10;;;12.20;99.90;;;;;;4999294;28;20395;-48
2022/10/28 03:12:40;;;;;;;5.32;3.97;;;12.20;99.90;;;;;;4997998;28;20027;-50
2022/10/28 03:15:07;;;;;;;16.67;5.05;;;12.20;99.90;;;;;;5004158;28;20462;-49
2022/10/28 03:17:32;;;;;;;5.60;4.25;;;12.20;99.90;;;;;;5003470;28;20038;-50
2022/10/28 03:19:58;;;;;;;5.15;3.83;;;12.20;99.90;;;;;;4999899;28;20030;-49
2022/10/28 03:22:24;;;;;;;4.32;3.92;;;12.20;99.90;;;;;;5013744;28;20113;-48
2022/10/28 03:24:49;;;;;;;5.28;4.03;;;12.20;99.90;;;;;;5001884;28;20325;-52
2022/10/28 03:27:15;;;;;;;4.55;3.80;;;12.20;99.90;;;;;;5000326;28;20033;-48
2022/10/28 03:29:41;;;;;;;4.35;3.83;;;12.20;99.90;;;;;;4999351;28;20030;-50
2022/10/28 03:32:06;;;;;;;4.57;4.18;;;12.20;99.90;;;;;;5004957;28;20261;-48
2022/10/28 03:34:32;;;;;;;5.22;3.90;;;12.10;99.90;;;;;;4998117;28;20033;-51
2022/10/28 03:36:57;;;;;;;4.60;3.92;;;12.10;99.90;;;;;;5001960;28;20059;-50
2022/10/28 03:39:23;;;;;;;4.70;4.22;;;12.10;99.90;;;;;;4993330;28;20085;-49
2022/10/28 03:41:48;;;;;;;5.32;4.15;;;12.10;99.90;;;;;;5004295;28;20033;-50
2022/10/28 03:44:14;;;;;;;5.30;4.38;;;12.10;99.90;;;;;;4992208;28;20022;-48
2022/10/28 03:46:40;;;;;;;5.97;4.03;;;12.10;99.90;;;;;;4999814;28;20024;-48
2022/10/28 03:49:05;;;;;;;5.22;4.07;;;12.10;99.90;;;;;;4996353;28;20049;-51
2022/10/28 03:51:31;;;;;;;6.00;4.30;;;12.10;99.90;;;;;;5009107;28;20037;-49
2022/10/28 03:53:56;;;;;;;4.40;4.00;;;12.10;99.90;;;;;;4999104;28;20028;-48
2022/10/28 03:56:22;;;;;;;5.47;4.55;;;12.10;99.90;;;;;;4997825;28;20692;-48
2022/10/28 03:58:48;;;;;;;5.25;3.95;;;12.10;99.90;;;;;;4999641;28;20034;-52
2022/10/28 04:01:14;;;;;;;4.90;4.13;;;12.10;99.90;;;;;;4991934;28;20022;-52
2022/10/28 04:03:40;;;;;;;4.47;3.92;;;12.10;99.90;;;;;;4999440;28;20092;-50
2022/10/28 04:06:05;;;;;;;5.30;3.92;;;12.20;99.90;;;;;;5006383;28;20028;-51
2022/10/28 04:08:31;;;;;;;5.50;3.95;;;12.20;99.90;;;;;;5000497;28;20058;-54
2022/10/28 04:10:56;;;;;;;7.47;3.72;;;12.20;99.90;;;;;;4999566;28;20097;-49
2022/10/28 04:13:22;;;;;;;7.55;4.63;;;12.20;99.90;;;;;;4998620;28;20058;-48
2022/10/28 04:15:47;;;;;;;8.77;5.28;;;12.20;99.90;;;;;;5007857;28;20068;-48
2022/10/28 04:18:13;;;;;;;5.80;4.22;;;12.30;99.90;;;;;;4999683;28;20121;-49
2022/10/28 04:20:39;;;;;;;5.10;4.10;;;12.30;99.90;;;;;;4999701;28;20113;-48
2022/10/28 04:23:05;;;;;;;5.30;3.92;;;12.30;99.90;;;;;;5002917;28;20033;-48
2022/10/28 04:25:30;;;;;;;5.50;4.80;;;12.30;99.90;;;;;;5000682;28;20459;-51
2022/10/28 04:27:56;;;;;;;5.65;3.95;;;12.30;99.90;;;;;;5003505;28;20110;-51
2022/10/28 04:30:21;;;;;;;4.90;4.38;;;12.30;99.90;;;;;;5000328;28;20054;-50
2022/10/28 04:32:47;;;;;;;4.43;3.78;;;12.30;99.90;;;;;;5002300;28;20030;-48
2022/10/28 04:35:13;;;;;;;6.82;4.10;;;12.30;99.90;;;;;;4999327;28;20034;-49
2022/10/28 04:37:39;;;;;;;4.82;4.00;;;12.30;99.90;;;;;;4999454;28;20461;-54
2022/10/28 04:40:06;;;;;;;6.03;4.82;;;12.30;99.90;;;;;;4997935;28;20030;-50
2022/10/28 04:42:32;;;;;;;4.90;4.25;;;12.30;99.90;;;;;;4999641;28;20393;-48
2022/10/28 04:44:57;;;;;;;5.63;4.32;;;12.30;99.90;;;;;;5002439;28;20033;-48
2022/10/28 04:47:23;;;;;;;6.97;4.40;;;12.30;99.90;;;;;;4999371;28;21446;-52
2022/10/28 04:49:48;;;;;;;8.63;4.40;;;12.30;99.90;;;;;;5012867;28;20504;-54
2022/10/28 04:52:14;;;;;;;6.72;4.35;;;12.40;99.90;;;;;;4986114;28;20573;-50
2022/10/28 04:54:39;;;;;;;5.30;4.15;;;12.40;99.90;;;;;;4996847;28;20038;-52
2022/10/28 04:57:05;;;;;;;5.13;4.13;;;12.40;99.90;;;;;;5003059;28;20039;-49
2022/10/28 04:59:31;;;;;;;6.35;4.30;;;12.40;99.90;;;;;;5001586;28;20029;-48
2022/10/28 05:01:56;;;;;;;5.50;4.07;;;12.40;99.90;;;;;;4993310;28;20035;-48
2022/10/28 05:04:22;;;;;;;6.85;3.60;;;12.40;99.90;;;;;;4996020;28;20022;-51
2022/10/28 05:06:48;;;;;;;6.38;4.22;;;12.40;99.90;;;;;;4995826;28;20049;-49
2022/10/28 05:09:13;;;;;;;6.07;4.28;;;12.40;99.90;;;;;;5000095;28;20033;-51
2022/10/28 05:11:39;;;;;;;6.18;3.90;;;12.30;99.90;;;;;;5002948;28;20022;-48
2022/10/28 05:14:04;;;;;;;4.78;4.03;;;12.40;99.90;;;;;;5000848;28;20034;-48
2022/10/28 05:16:30;;;;;;;3.97;3.40;;;12.30;99.90;;;;;;4999056;28;20041;-54
2022/10/28 05:18:56;;;;;;;4.53;4.07;;;12.40;99.90;;;;;;4998622;28;20026;-50
2022/10/28 05:21:22;;;;;;;7.22;4.13;;;12.40;99.90;;;;;;4998320;28;20029;-49
2022/10/28 05:23:47;;;;;;;5.05;4.55;;;12.40;99.90;;;;;;4999325;28;20044;-50
2022/10/28 05:26:13;;;;;;;6.65;4.47;;;12.30;99.90;;;;;;4996345;28;20037;-52
2022/10/28 05:28:39;;;;;;;6.10;4.40;;;12.40;99.90;;;;;;4999489;28;20036;-50
2022/10/28 05:31:04;;;;;;;5.47;4.28;;;12.40;99.90;;;;;;4996052;28;20421;-49
2022/10/28 05:33:30;;;;;;;5.07;4.47;;;12.30;99.90;;;;;;5001091;28;20153;-52
2022/10/28 05:35:58;;;;;;;6.53;4.82;;;12.40;99.90;;;;;;4998104;28;20030;-48
2022/10/28 05:38:24;;;;;;;6.80;4.40;;;12.30;99.90;;;;;;4999427;28;20543;-52
2022/10/28 05:40:49;;;;;;;7.45;4.55;;;12.30;99.90;;;;;;5012434;28;20026;-51
2022/10/28 05:43:15;;;;;;;7.55;3.90;;;12.40;99.90;;;;;;4994438;28;20427;-57
2022/10/28 05:45:40;;;;;;;4.35;3.95;;;12.30;99.90;;;;;;4997097;28;20038;-47
2022/10/28 05:48:06;;;;;;;5.25;4.10;;;12.30;99.90;;;;;;4998836;28;20026;-48
2022/10/28 05:50:32;;;;;;;5.28;4.47;;;12.30;99.90;;;;;;5001115;28;20370;-51
2022/10/28 05:52:57;;;;;;;5.40;4.05;;;12.30;99.90;;;;;;4989336;28;20061;-51
2022/10/28 05:55:27;;;;;;;8.18;4.32;;;12.30;99.90;;;;;;5011948;28;20033;-51
2022/10/28 05:57:54;;;;;;;9.77;5.10;;;12.30;99.90;;;;;;5000358;28;20377;-48
2022/10/28 06:00:23;;;;;;;4.78;4.07;;;12.30;99.90;;;;;;5001208;28;20029;-49
2022/10/28 06:02:48;;;;;;;5.28;3.90;;;12.30;99.90;;;;;;5001200;28;20097;-48
2022/10/28 06:05:14;;;;;;;6.40;4.70;;;12.30;99.90;;;;;;4994592;28;20049;-48
2022/10/28 06:07:40;;;;;;;5.65;4.03;;;12.20;99.90;;;;;;5000418;28;20018;-49
2022/10/28 06:10:07;;;;;;;5.97;4.10;;;12.20;99.90;;;;;;4994819;28;20250;-51
2022/10/28 06:12:33;;;;;;;6.03;3.63;;;12.20;99.90;;;;;;4999508;28;20028;-49
2022/10/28 06:14:59;;;;;;;4.68;4.10;;;12.20;99.90;;;;;;4994651;28;20025;-48
2022/10/28 06:17:25;;;;;;;5.88;3.83;;;12.10;99.90;;;;;;4999486;28;20018;-52
2022/10/28 06:19:51;;;;;;;4.88;3.97;;;12.10;99.90;;;;;;4993829;28;20516;-48
2022/10/28 06:22:16;;;;;;;5.68;4.20;;;12.10;99.90;;;;;;5006688;28;20281;-48
2022/10/28 06:24:42;;;;;;;5.93;3.88;;;12.00;99.90;;;;;;5001318;28;20017;-50
2022/10/28 06:27:07;;;;;;;4.50;4.10;;;12.10;99.90;;;;;;4994357;28;20035;-48
2022/10/28 06:29:33;;;;;;;5.55;4.53;;;12.00;99.90;;;;;;5001469;28;20592;-49
2022/10/28 06:31:59;;;;;;;5.00;4.07;;;12.00;99.90;;;;;;4999977;28;20564;-51
2022/10/28 06:34:25;;;;;;;6.63;4.43;;;12.00;99.90;;;;;;4995999;28;20065;-53
2022/10/28 06:36:51;;;;;;;7.60;4.70;;;12.00;99.90;;;;;;4992896;28;20160;-53
2022/10/28 06:39:16;;;;;;;6.22;4.25;;;12.00;99.90;;;;;;4991864;28;20416;-50
2022/10/28 06:41:42;;;;;;;7.00;4.70;;;12.00;99.90;;;;;;5000837;28;20281;-48
2022/10/28 06:44:08;;;;;;;8.23;5.32;;;12.00;99.90;;;;;;5004459;28;20026;-49
2022/10/28 06:46:34;;;;;;;7.47;4.95;;;12.10;99.90;;;;;;5005799;28;20477;-48
2022/10/28 06:49:03;;;;;;;7.38;4.63;;;12.00;99.90;;;;;;4999577;28;20088;-48
2022/10/28 06:51:30;;;;;;;4.78;3.97;;;12.00;99.90;;;;;;4997361;28;20484;-49
2022/10/28 06:53:56;;;;;;;7.70;4.43;;;12.10;99.90;;;;;;5004385;28;20173;-53
2022/10/28 06:56:21;;;;;;;8.93;4.68;;;12.10;99.90;;;;;;4997872;28;20027;-50
2022/10/28 06:58:54;;;;;;;9.02;4.70;;;12.10;99.90;;;;;;5004505;28;20025;-54
2022/10/28 07:01:20;;;;;;;8.40;5.80;;;12.10;99.90;;;;;;4992572;28;20154;-47
2022/10/28 07:03:47;;;;;;;6.00;4.75;;;12.10;99.90;;;;;;4997458;28;20101;-53
2022/10/28 07:06:14;;;;;;;7.03;5.38;;;12.10;99.90;;;;;;5003364;28;20054;-52
2022/10/28 07:08:39;;;;;;;7.07;5.38;;;12.20;99.90;;;;;;4998028;28;20029;-51
2022/10/28 07:11:05;;;;;;;6.68;4.70;;;12.20;99.90;;;;;;5004518;28;20026;-52
2022/10/28 07:13:30;;;;;;;11.20;5.22;;;12.20;99.90;;;;;;4997328;28;20026;-48
2022/10/28 07:15:58;;;;;;;7.95;5.10;;;12.30;99.90;;;;;;5005028;28;20030;-52
2022/10/28 07:18:25;;;;;;;8.80;5.43;;;12.30;99.90;;;;;;4995606;28;20027;-49
2022/10/28 07:20:50;;;;;;;7.43;5.10;;;12.30;99.90;;;;;;4997198;28;20073;-51
2022/10/28 07:23:16;;;;;;;9.10;5.38;;;12.30;99.90;;;;;;5003203;28;20026;-51
2022/10/28 07:25:42;;;;;;;9.48;5.60;;;12.30;99.90;;;;;;4995298;28;20031;-49
2022/10/28 07:28:08;;;;;;;8.88;5.13;;;12.40;99.90;;;;;;5004559;28;20107;-50
2022/10/28 07:30:33;;;;;;;8.63;6.10;;;12.40;99.90;;;;;;4996892;28;20394;-47
2022/10/28 07:33:00;;;;;;;7.70;5.55;;;12.40;99.90;;;;;;5002017;28;20027;-51
2022/10/28 07:35:29;;;;;;;9.15;6.13;;;12.50;99.90;;;;;;5000677;28;20019;-53
2022/10/28 07:37:56;;;;;;;11.48;6.00;;;12.50;99.90;;;;;;4998104;28;20034;-53
2022/10/28 07:40:22;;;;;;;7.60;5.30;;;12.60;99.90;;;;;;5002144;28;20021;-50
2022/10/28 07:42:47;;;;;;;9.20;5.70;;;12.70;99.90;;;;;;4996401;28;20070;-51
2022/10/28 07:45:14;;;;;;;7.70;6.00;;;12.70;99.90;;;;;;5004593;28;20409;-48
2022/10/28 07:47:39;;;;;;;8.65;5.97;;;12.70;99.90;;;;;;4999893;28;20093;-48
2022/10/28 07:50:07;;;;;;;8.63;5.95;;;12.80;99.90;;;;;;5001692;28;20014;-50
2022/10/28 07:52:34;;;;;;;8.52;6.10;;;12.80;99.90;;;;;;4994418;28;20032;-52
2022/10/28 07:54:59;;;;;;;8.55;6.82;;;12.90;99.90;;;;;;5001305;28;20077;-51
2022/10/28 07:57:25;;;;;;;8.18;5.72;;;13.00;99.90;;;;;;4993116;28;20022;-51
2022/10/28 07:59:51;;;;;;;8.30;5.68;;;13.00;99.90;;;;;;5028603;23;20126;-52
2022/10/28 08:02:19;;;;;;;8.07;5.60;;;13.10;99.90;;;;;;5017717;28;20030;-50
2022/10/28 08:04:45;;;;;;;10.35;6.82;;;13.10;99.90;;;;;;5017887;28;20036;-50
2022/10/28 08:07:11;;;;;;;13.65;6.28;;;13.20;99.90;;;;;;5023410;28;20026;-51
2022/10/28 08:09:37;;;;;;;10.48;6.05;;;13.20;99.90;;;;;;5019195;28;20104;-50
2022/10/28 08:12:04;;;;;;;11.75;6.22;;;13.30;99.90;;;;;;5022899;28;20536;-52
2022/10/28 08:14:29;;;;;;;13.68;7.15;;;13.40;99.90;;;;;;5023673;28;20044;-57
2022/10/28 08:16:54;;;;;;;9.65;6.05;;;13.40;99.90;;;;;;5018756;28;20058;-50
2022/10/28 08:19:20;;;;;;;11.95;7.07;;;13.50;99.90;;;;;;5020245;28;20153;-50
2022/10/28 08:21:46;;;;;;;8.13;6.13;;;13.60;99.90;;;;;;5018008;28;20098;-54
2022/10/28 08:24:11;;;;;;;9.13;6.55;;;13.60;99.90;;;;;;5021805;28;20506;-50
2022/10/28 08:26:37;;;;;;;9.55;6.47;;;13.70;99.90;;;;;;5021473;28;20053;-55
2022/10/28 08:29:02;;;;;;;8.48;5.93;;;13.80;99.90;;;;;;5014093;28;20083;-54
2022/10/28 08:31:30;;;;;;;12.07;6.30;;;13.90;99.90;;;;;;5000862;28;20064;-56
2022/10/28 08:33:55;;;;;;;9.27;6.47;;;14.00;99.90;;;;;;5009846;28;20026;-54
2022/10/28 08:36:21;;;;;;;7.95;5.72;;;14.10;99.90;;;;;;4996880;28;20049;-51
2022/10/28 08:38:47;;;;;;;11.50;6.07;;;14.10;99.90;;;;;;5000082;28;20031;-54
2022/10/28 08:41:23;;;;;;;8.63;5.68;;;14.20;99.90;;;;;;5002412;28;20104;-55
2022/10/28 08:44:20;;;;;;;12.23;6.82;;;14.30;99.90;;;;;;5000375;28;20038;-54
2022/10/28 08:46:51;;;;;;;8.73;5.65;;;14.40;99.90;;;;;;5015840;28;20079;-52
2022/10/28 08:49:20;;;;;;;11.23;5.65;;;14.50;99.90;;;;;;5017492;28;20022;-53
2022/10/28 08:52:10;;;;;;;10.75;6.50;;;14.50;99.90;;;;;;5013416;28;20056;-51
2022/10/28 08:54:53;;;;;;;9.25;6.13;;;14.60;99.90;;;;;;5015497;28;20476;-51
2022/10/28 08:57:56;;;;;;;9.95;5.70;;;14.70;99.90;;;;;;5010325;28;20112;-57
2022/10/28 09:00:28;;;;;;;8.02;5.47;;;14.80;99.90;;;;;;5013507;28;20474;-54
2022/10/28 09:03:12;;;;;;;9.50;4.88;;;14.90;99.90;;;;;;5021591;28;20017;-54
2022/10/28 09:05:39;;;;;;;7.03;4.93;;;15.00;99.90;;;;;;5019720;28;20029;-56
2022/10/28 09:08:12;;;;;;;8.07;5.18;;;15.00;99.90;;;;;;5017558;28;20060;-56
2022/10/28 09:10:59;;;;;;;11.00;5.47;;;15.10;99.90;;;;;;5022851;28;20033;-54
2022/10/28 09:13:40;;;;;;;11.10;5.70;;;15.20;99.90;;;;;;5014270;28;20041;-51
2022/10/28 09:16:36;;;;;;;9.05;4.78;;;15.40;99.90;;;;;;5021425;28;20071;-55
2022/10/28 09:19:40;;;;;;;6.82;4.05;;;15.40;99.90;;;;;;5019084;28;20079;-55
2022/10/28 09:22:35;;;;;;;8.70;4.35;;;15.50;99.90;;;;;;5017821;28;20041;-55
2022/10/28 09:25:10;;;;;;;10.80;3.80;;;15.60;99.90;;;;;;5017790;28;20508;-55
2022/10/28 09:27:50;;;;;;;10.10;4.82;;;15.80;99.90;;;;;;5022489;28;20108;-55
2022/10/28 09:30:16;;;;;;;7.82;4.38;;;15.80;99.90;;;;;;5014557;28;20025;-52
2022/10/28 09:33:16;;;;;;;8.18;3.78;;;15.90;99.90;;;;;;5023815;28;20349;-54
2022/10/28 09:35:44;;;;;;;12.88;4.65;;;16.00;99.90;;;;;;5016617;28;20026;-55
2022/10/28 09:38:30;;;;;;;7.32;3.65;;;16.00;99.90;;;;;;5019273;28;20467;-57
2022/10/28 09:41:23;;;;;;;9.40;4.22;;;16.10;99.90;;;;;;5019907;28;20202;-51
2022/10/28 09:44:06;;;;;;;7.32;3.95;;;16.20;99.90;;;;;;5020687;28;20053;-53
2022/10/28 09:46:32;;;;;;;9.30;4.20;;;16.30;99.90;;;;;;5014035;28;20023;-53
2022/10/28 09:49:10;;;;;;;9.43;4.18;;;16.40;99.90;;;;;;5020029;28;20044;-50
2022/10/28 09:51:59;;;;;;;12.70;4.85;;;16.50;99.90;;;;;;5015624;28;20392;-50
2022/10/28 09:54:41;;;;;;;9.20;4.75;;;16.60;99.90;;;;;;5012956;28;20022;-52
2022/10/28 09:57:06;;;;;;;9.38;3.47;;;16.60;99.90;;;;;;5019773;28;20025;-51
2022/10/28 09:59:33;;;;;;;7.68;4.25;;;16.60;99.90;;;;;;5022462;28;20038;-52
2022/10/28 10:01:59;;;;;;;11.93;3.85;;;16.70;99.90;;;;;;5014963;28;20552;-50
2022/10/28 10:04:27;;;;;;;6.47;3.20;;;16.80;99.90;;;;;;5019548;28;20049;-56
2022/10/28 10:07:10;;;;;;;10.15;5.07;;;16.90;99.90;;;;;;5019176;28;20025;-50
2022/10/28 10:09:37;;;;;;;8.10;3.65;;;17.00;99.90;;;;;;5017107;28;20025;-52
2022/10/28 10:12:11;;;;;;;12.15;4.13;;;17.00;99.90;;;;;;5019743;28;20042;-54
2022/10/28 10:14:45;;;;;;;5.60;3.53;;;17.20;99.90;;;;;;5025401;28;20095;-52
2022/10/28 10:17:21;;;;;;;8.98;4.22;;;17.30;99.90;;;;;;5013585;28;20028;-51
2022/10/28 10:20:07;;;;;;;5.00;3.33;;;17.30;99.90;;;;;;5021359;28;20025;-49
2022/10/28 10:22:41;;;;;;;14.70;3.65;;;17.40;99.90;;;;;;5015955;28;20029;-51
2022/10/28 10:25:28;;;;;;;10.45;2.83;;;17.50;99.90;;;;;;5018946;28;20037;-51
2022/10/28 10:28:03;;;;;;;8.52;3.25;;;17.60;99.90;;;;;;5024360;28;20021;-51
2022/10/28 10:30:47;;;;;;;8.65;3.33;;;17.70;99.90;;;;;;5017591;28;20025;-50
2022/10/28 10:33:23;;;;;;;4.97;2.97;;;17.80;99.90;;;;;;5025658;28;20022;-50
2022/10/28 10:35:59;;;;;;;7.97;2.90;;;17.80;99.90;;;;;;5016740;28;20445;-52
2022/10/28 10:38:25;;;;;;;;;;;17.90;99.90;;;;;;5021323;28;20493;-52
2022/10/28 10:40:52;;;;;;;7.47;3.50;;;17.90;99.90;;;;;;5018996;28;20035;-52
2022/10/28 10:43:20;;;;;;;5.60;2.60;;;18.00;99.90;;;;;;5020815;28;20294;-53
2022/10/28 10:46:04;;;;;;;5.43;3.15;;;18.00;99.90;;;;;;5020084;28;20467;-54
2022/10/28 10:48:32;;;;;;;9.93;3.22;;;18.10;99.90;;;;;;5010912;28;20079;-51
2022/10/28 10:51:22;;;;;;;9.00;3.25;;;18.10;99.90;;;;;;5014408;28;20025;-51
2022/10/28 10:53:50;;;;;;;6.30;4.03;;;18.20;99.90;;;;;;5025284;28;20464;-56
2022/10/28 10:56:32;;;;;;;7.18;2.95;;;18.20;99.90;;;;;;5013533;28;20056;-50
2022/10/28 10:59:01;;;;;;;14.18;4.53;;;18.30;99.90;;;;;;5024915;28;20449;-51
2022/10/28 11:01:32;;;;;;;6.55;2.95;;;18.40;99.90;;;;;;5017087;28;20018;-53
2022/10/28 11:04:14;;;;;;;8.20;3.45;;;18.50;99.90;;;;;;5018730;28;20029;-49
2022/10/28 11:06:43;;;;;;;5.95;2.92;;;18.40;99.90;;;;;;5019320;28;20030;-50
2022/10/28 11:09:21;;;;;;;4.50;2.25;;;18.50;99.90;;;;;;5019165;28;20033;-50
2022/10/28 11:11:47;;;;;;;7.80;3.10;;;18.50;99.90;;;;;;5019334;28;20433;-52
2022/10/28 11:14:12;;;;;;;7.43;3.70;;;18.50;99.90;;;;;;5020569;28;20092;-50
2022/10/28 11:16:51;;;;;;;10.57;3.53;;;18.60;99.90;;;;;;5021666;28;20040;-51
2022/10/28 11:19:24;;;;;;;8.63;3.08;;;18.60;99.90;;;;;;5008113;28;20652;-53
2022/10/28 11:22:16;;;;;;;7.88;2.90;;;18.60;99.90;;;;;;5019881;28;20128;-51
2022/10/28 11:25:09;;;;;;;7.72;3.45;;;18.70;99.90;;;;;;5024705;28;20017;-54
2022/10/28 11:28:08;;;;;;;6.68;3.25;;;18.70;99.90;;;;;;5014779;28;20515;-51
2022/10/28 11:30:49;;;;;;;6.38;2.90;;;18.80;99.90;;;;;;5019154;28;20024;-55
2022/10/28 11:33:18;;;;;;;11.60;3.00;;;18.90;99.90;;;;;;5025157;28;20100;-50
2022/10/28 11:36:06;;;;;;;6.28;3.03;;;18.90;99.90;;;;;;5022344;28;20021;-50
2022/10/28 11:38:54;;;;;;;7.13;3.10;;;19.00;99.90;;;;;;5014348;28;20029;-54
2022/10/28 11:41:41;;;;;;;5.75;3.33;;;19.00;99.90;;;;;;5020374;28;20033;-50
2022/10/28 11:44:43;;;;;;;10.38;3.25;;;19.00;99.90;;;;;;5014266;28;20041;-55
2022/10/28 11:47:29;;;;;;;9.02;2.72;;;19.00;99.90;;;;;;5020653;28;20057;-50
2022/10/28 11:50:06;;;;;;;11.77;2.95;;;19.10;99.90;;;;;;5021962;28;20503;-50
2022/10/28 11:52:47;;;;;;;10.15;3.38;;;19.10;99.90;;;;;;5017615;28;20026;-54
2022/10/28 11:55:33;;;;;;;9.27;3.35;;;19.20;99.90;;;;;;5023727;28;20032;-50
2022/10/28 11:58:14;;;;;;;8.07;2.97;;;19.20;99.90;;;;;;5015926;28;20036;-50
2022/10/28 12:01:00;;;;;;;9.45;3.55;;;19.30;99.90;;;;;;5026646;28;20025;-51
2022/10/28 12:04:04;;;;;;;7.15;3.13;;;19.30;99.90;;;;;;5011111;28;20022;-55
2022/10/28 12:06:45;;;;;;;8.32;3.13;;;19.30;99.90;;;;;;4981772;28;20017;-50
2022/10/28 12:09:39;;;;;;;7.63;2.92;;;19.20;99.90;;;;;;5015718;28;20388;-55
2022/10/28 12:12:13;;;;;;;9.43;3.45;;;19.20;99.90;;;;;;5018726;28;20095;-55
2022/10/28 12:14:54;;;;;;;7.40;2.70;;;19.20;99.90;;;;;;5017869;28;20033;-52
2022/10/28 12:17:56;;;;;;;9.13;3.22;;;19.20;99.90;;;;;;5009686;28;20025;-52
2022/10/28 12:20:23;;;;;;;5.82;2.97;;;19.30;99.90;;;;;;4976373;28;20051;-52
2022/10/28 12:22:52;;;;;;;7.85;3.20;;;19.40;99.90;;;;;;5007873;28;20030;-52
2022/10/28 12:25:25;;;;;;;6.72;3.22;;;19.50;99.90;;;;;;5011994;28;20038;-50
2022/10/28 12:28:13;;;;;;;9.23;3.15;;;19.60;99.90;;;;;;5026622;28;20013;-53
2022/10/28 12:30:41;;;;;;;7.13;3.40;;;19.70;99.90;;;;;;5020050;28;20060;-52
2022/10/28 12:33:19;;;;;;;7.60;3.40;;;19.60;99.90;;;;;;5017653;28;20053;-51
2022/10/28 12:35:53;;;;;;;6.18;2.72;;;19.60;99.90;;;;;;5019320;28;20018;-50
2022/10/28 12:38:27;;;;;;;7.43;2.92;;;19.60;99.90;;;;;;5008526;28;20025;-51
2022/10/28 12:41:05;;;;;;;7.63;3.15;;;19.60;99.90;;;;;;5020937;28;20510;-50
2022/10/28 12:43:37;;;;;;;8.50;3.38;;;19.60;99.90;;;;;;5022601;28;20041;-50
2022/10/28 12:46:03;;;;;;;7.00;2.60;;;19.50;99.90;;;;;;5018957;28;20026;-52
2022/10/28 12:48:41;;;;;;;4.22;2.83;;;19.50;99.90;;;;;;5023024;28;20025;-52
2022/10/28 12:51:26;;;;;;;7.22;2.67;;;19.50;99.90;;;;;;5020747;28;20032;-50
2022/10/28 12:53:54;;;;;;;8.27;3.33;;;19.50;99.90;;;;;;5014476;28;20492;-55
2022/10/28 12:56:32;;;;;;;7.38;3.20;;;19.40;99.90;;;;;;5022426;28;20391;-56
2022/10/28 12:59:06;;;;;;;11.52;3.58;;;19.40;99.90;;;;;;5027151;28;20026;-52
2022/10/28 13:01:34;;;;;;;7.88;2.80;;;19.40;99.90;;;;;;5010525;28;20109;-53
2022/10/28 13:04:00;;;;;;;9.68;3.20;;;19.30;99.90;;;;;;5021332;28;20014;-54
2022/10/28 13:06:44;;;;;;;7.95;3.50;;;19.30;99.90;;;;;;5015285;28;20396;-50
2022/10/28 13:09:29;;;;;;;8.05;3.92;;;19.20;99.90;;;;;;5022102;28;20216;-54
2022/10/28 13:12:04;;;;;;;7.78;3.22;;;19.20;99.90;;;;;;5020910;28;20022;-52